KACK

Nantucket Memorial Airport

Nantucket, Massachusetts, USA
KACK 232339Z 2400/2424 23010KT P6SM OVC150 FM240200 26011G21KT P6SM OVC150 FM240500 28013G22KT P6SM BKN200 FM241300 30014G23KT P6SM VCSH BKN100 FM241500 30015G24KT P6SM VCSH BKN030 FM242100 33016G27KT P6SM VCSH BKN020
Issued Valid From Valid To
Oct-23 @ 23:39 UTC
(5 hours ago)
Oct-24 @ 00:00 UTC
(5 hours ago)
Oct-25 @ 00:00 UTC
(in 19 hours)
Expired Click to View Oct-24 @ 00:00 to Oct-24 @ 02:00
KACK 232339Z 2400/2424 23010KT P6SM OVC150
Wind Visibility Clouds
230° at 10 knots Greater than 6 miles
  • Overcast at 15,000' AGL
Expired Click to View Oct-24 @ 02:00 to Oct-24 @ 05:00
FM240200 26011G21KT P6SM OVC150
Wind Visibility Clouds
260° at 11 knots
 Gusting to 21 knots
Greater than 6 miles
  • Overcast at 15,000' AGL
From Oct-24 @ 05:00 to Oct-24 @ 13:00
FM240500 28013G22KT P6SM BKN200
Wind Visibility Clouds
280° at 13 knots
 Gusting to 22 knots
Greater than 6 miles
  • Broken at 20,000' AGL
From Oct-24 @ 13:00 to Oct-24 @ 15:00
FM241300 30014G23KT P6SM VCSH BKN100
Wind Visibility Clouds
300° at 14 knots
 Gusting to 23 knots
Greater than 6 miles
  • Broken at 10,000' AGL
From Oct-24 @ 15:00 to Oct-24 @ 21:00
FM241500 30015G24KT P6SM VCSH BKN030
Wind Visibility Clouds
300° at 15 knots
 Gusting to 24 knots
Greater than 6 miles
  • Broken at 3,000' AGL
From Oct-24 @ 21:00 to Oct-25 @ 00:00
FM242100 33016G27KT P6SM VCSH BKN020
Wind Visibility Clouds
330° at 16 knots
 Gusting to 27 knots
Greater than 6 miles
  • Broken at 2,000' AGL
KACK 232339Z 2400/2424 23010KT P6SM OVC150 FM240200 26011G21KT P6SM OVC150 FM240500 28013G22KT P6SM BKN200 FM241300 30014G23KT P6SM VCSH BKN100 FM241500 30015G24KT P6SM VCSH BKN030 FM242100 33016G27KT P6SM VCSH BKN020
Issued Oct-23 @ 23:39 UTC
(5 hours ago)
Valid From Oct-24 @ 00:00 UTC
(5 hours ago)
Valid To Oct-25 @ 00:00 UTC
(in 19 hours)
Oct-24 @ 00:00 - Oct-24 @ 02:00
Wind Visibility
230° at 10 knots Greater than 6 miles
Clouds
  • Overcast at 15,000' AGL
Oct-24 @ 02:00 - Oct-24 @ 05:00
Wind Visibility
260° at 11 knots
 Gusting to 21 knots
Greater than 6 miles
Clouds
  • Overcast at 15,000' AGL
From Oct-24 @ 05:00 - Oct-24 @ 13:00
Wind Visibility
280° at 13 knots
 Gusting to 22 knots
Greater than 6 miles
Clouds
  • Broken at 20,000' AGL
From Oct-24 @ 13:00 - Oct-24 @ 15:00
Wind Visibility
300° at 14 knots
 Gusting to 23 knots
Greater than 6 miles
Clouds
  • Broken at 10,000' AGL
From Oct-24 @ 15:00 - Oct-24 @ 21:00
Wind Visibility
300° at 15 knots
 Gusting to 24 knots
Greater than 6 miles
Clouds
  • Broken at 3,000' AGL
From Oct-24 @ 21:00 - Oct-25 @ 00:00
Wind Visibility
330° at 16 knots
 Gusting to 27 knots
Greater than 6 miles
Clouds
  • Broken at 2,000' AGL